Time;durP1;ratioP1;P1;durP2;ratioP2;P2;SDS_P1;SDS_P2;PMS_P1;PMS_P2;Temp;Humidity;BMP_temperature;BMP_pressure;BME280_temperature;BME280_humidity;BME280_pressure;Samples;Min_cycle;Max_cycle;Signal;HPM_P1;HPM_P2
2024/04/23 00:01:30;;;;;;;6.18;2.22;;;6.00;99.90;;;;;;5454001;26;20013;-87
2024/04/23 00:03:56;;;;;;;2.50;2.03;;;5.80;99.90;;;;;;5454486;26;19995;-87
2024/04/23 00:06:21;;;;;;;2.88;2.00;;;5.80;99.90;;;;;;5454274;26;20003;-87
2024/04/23 00:08:47;;;;;;;2.83;2.00;;;5.90;99.90;;;;;;5454010;26;19998;-87
2024/04/23 00:11:12;;;;;;;3.58;2.00;;;5.90;99.90;;;;;;5454495;26;20011;-87
2024/04/23 00:13:38;;;;;;;4.57;2.22;;;5.90;99.90;;;;;;5453355;26;19995;-87
2024/04/23 00:16:04;;;;;;;3.40;2.05;;;5.90;99.90;;;;;;5454174;26;20014;-87
2024/04/23 00:18:29;;;;;;;7.18;2.83;;;5.90;99.90;;;;;;5454346;26;20010;-86
2024/04/23 00:20:55;;;;;;;3.85;2.28;;;5.80;99.90;;;;;;5453550;26;20014;-86
2024/04/23 00:23:25;;;;;;;2.22;2.03;;;5.80;99.90;;;;;;5454181;26;20005;-87
2024/04/23 00:25:50;;;;;;;4.47;2.50;;;5.80;99.90;;;;;;5456330;26;20043;-87
2024/04/23 00:28:16;;;;;;;3.55;2.45;;;5.80;99.90;;;;;;5477639;26;20002;-87
2024/04/23 00:30:41;;;;;;;5.72;2.15;;;5.90;99.90;;;;;;5474066;26;19999;-88
2024/04/23 00:33:07;;;;;;;2.78;2.10;;;5.90;99.90;;;;;;5454655;26;19999;-87
2024/04/23 00:35:33;;;;;;;3.78;2.42;;;5.80;99.90;;;;;;5453397;26;20045;-87
2024/04/23 00:37:59;;;;;;;3.67;2.95;;;5.70;99.90;;;;;;5453785;26;20413;-88
2024/04/23 00:40:27;;;;;;;2.60;2.30;;;5.60;99.90;;;;;;5453971;26;20038;-86
2024/04/23 00:42:53;;;;;;;2.53;2.28;;;5.60;99.90;;;;;;5453201;26;19999;-87
2024/04/23 00:45:21;;;;;;;2.75;2.38;;;5.50;99.90;;;;;;5453791;26;20006;-87
2024/04/23 00:47:47;;;;;;;4.20;2.33;;;5.50;99.90;;;;;;5453720;26;20002;-88
2024/04/23 00:50:12;;;;;;;3.20;2.30;;;5.50;99.90;;;;;;5453103;26;20392;-86
2024/04/23 00:52:38;;;;;;;2.70;2.22;;;5.50;99.90;;;;;;5453746;26;20003;-87
2024/04/23 00:55:04;;;;;;;2.28;2.08;;;5.50;99.90;;;;;;5466138;26;19999;-87
2024/04/23 00:57:29;;;;;;;3.50;2.10;;;5.50;99.90;;;;;;5453536;26;20014;-87
2024/04/23 00:59:55;;;;;;;2.15;2.05;;;5.50;99.90;;;;;;5453702;26;19995;-86
2024/04/23 01:02:21;;;;;;;2.88;2.30;;;5.40;99.90;;;;;;5453321;26;20437;-88
2024/04/23 01:04:46;;;;;;;2.42;2.22;;;5.40;99.90;;;;;;5452528;26;20006;-87
2024/04/23 01:07:12;;;;;;;2.60;2.40;;;5.40;99.90;;;;;;5453541;26;20003;-88
2024/04/23 01:09:37;;;;;;;4.05;2.30;;;5.30;99.90;;;;;;5453329;26;20009;-87
2024/04/23 01:12:03;;;;;;;6.78;2.25;;;5.30;99.90;;;;;;5452756;26;20079;-88
2024/04/23 01:14:29;;;;;;;6.85;2.42;;;5.30;99.90;;;;;;5453523;26;19999;-87
2024/04/23 01:16:56;;;;;;;2.60;2.40;;;5.30;99.90;;;;;;5452719;26;20002;-88
2024/04/23 01:19:35;;;;;;;2.33;2.13;;;5.40;99.90;;;;;;5453246;26;20014;-88
2024/04/23 01:22:10;;;;;;;3.78;2.15;;;5.40;99.90;;;;;;5453252;26;20035;-87
2024/04/23 01:24:41;;;;;;;3.20;2.38;;;5.40;99.90;;;;;;5453142;26;19998;-87
2024/04/23 01:27:06;;;;;;;3.95;2.20;;;5.30;99.90;;;;;;5455921;26;20338;-87
2024/04/23 01:29:34;;;;;;;4.90;2.38;;;5.40;99.90;;;;;;5456991;26;19999;-87
2024/04/23 01:32:02;;;;;;;2.70;2.42;;;5.30;99.90;;;;;;5455790;26;20544;-87
2024/04/23 01:34:30;;;;;;;2.97;2.40;;;5.30;99.90;;;;;;5456858;26;19999;-87
2024/04/23 01:36:56;;;;;;;2.53;2.33;;;5.30;99.90;;;;;;5456460;26;20003;-86
2024/04/23 01:39:22;;;;;;;3.10;2.80;;;5.50;99.90;;;;;;5455877;26;19995;-88
2024/04/23 01:41:48;;;;;;;3.17;2.50;;;5.20;99.90;;;;;;5456511;26;20544;-87
2024/04/23 01:44:15;;;;;;;4.40;2.08;;;5.20;99.90;;;;;;5456904;26;20029;-87
2024/04/23 01:46:41;;;;;;;5.35;2.58;;;5.10;99.90;;;;;;5456499;26;20035;-87
2024/04/23 01:49:06;;;;;;;2.80;2.60;;;5.10;99.90;;;;;;5456633;26;20015;-86
2024/04/23 01:51:32;;;;;;;5.32;2.50;;;5.10;99.90;;;;;;5456510;26;19998;-87
2024/04/23 01:53:58;;;;;;;4.18;2.63;;;5.00;99.90;;;;;;5455776;26;20003;-87
2024/04/23 01:56:24;;;;;;;2.42;2.22;;;4.90;99.90;;;;;;5456483;26;19995;-86
2024/04/23 01:58:50;;;;;;;3.30;2.72;;;4.90;99.90;;;;;;5456351;26;20011;-86
2024/04/23 02:01:17;;;;;;;3.13;2.35;;;4.90;99.90;;;;;;5455757;26;20017;-87
2024/04/23 02:03:45;;;;;;;2.88;2.05;;;4.90;99.90;;;;;;5456232;26;20003;-86
2024/04/23 02:06:10;;;;;;;4.38;2.70;;;4.90;99.90;;;;;;5458215;26;20029;-88
2024/04/23 02:08:36;;;;;;;5.15;2.88;;;4.90;99.90;;;;;;5480133;26;20006;-85
2024/04/23 02:11:02;;;;;;;5.00;2.28;;;5.20;99.90;;;;;;5477603;26;20079;-86
2024/04/23 02:13:27;;;;;;;4.40;2.30;;;4.90;99.90;;;;;;5467701;26;20009;-87
2024/04/23 02:15:53;;;;;;;2.20;2.00;;;4.90;99.90;;;;;;5458285;26;19999;-87
2024/04/23 02:18:18;;;;;;;3.20;2.40;;;5.00;99.90;;;;;;5459974;26;20007;-88
2024/04/23 02:20:47;;;;;;;3.53;2.40;;;5.00;99.90;;;;;;5457515;26;20013;-87
2024/04/23 02:23:13;;;;;;;3.75;2.40;;;5.00;99.90;;;;;;5458560;26;20013;-87
2024/04/23 02:25:39;;;;;;;2.92;2.42;;;5.10;99.90;;;;;;5456635;26;19998;-87
2024/04/23 02:28:04;;;;;;;2.90;2.67;;;5.10;99.90;;;;;;5455555;26;19995;-86
2024/04/23 02:30:30;;;;;;;3.40;3.10;;;5.00;99.90;;;;;;5456009;26;20454;-87
2024/04/23 02:32:55;;;;;;;3.38;2.50;;;5.00;99.90;;;;;;5456264;26;19995;-87
2024/04/23 02:35:21;;;;;;;2.55;2.35;;;5.00;99.90;;;;;;5455788;26;20019;-87
2024/04/23 02:37:47;;;;;;;3.47;2.42;;;5.00;99.90;;;;;;5457166;26;20010;-87
2024/04/23 02:40:12;;;;;;;6.78;2.75;;;5.00;99.90;;;;;;5459546;26;20018;-87
2024/04/23 02:42:38;;;;;;;4.88;2.85;;;5.00;99.90;;;;;;5457513;26;20470;-87
2024/04/23 02:45:04;;;;;;;3.03;2.53;;;5.00;99.90;;;;;;5455719;26;20009;-87
2024/04/23 02:47:29;;;;;;;4.32;2.72;;;5.10;99.90;;;;;;5455564;26;19999;-87
2024/04/23 02:49:55;;;;;;;3.47;2.90;;;5.00;99.90;;;;;;5455216;26;20033;-88
2024/04/23 02:52:20;;;;;;;4.05;2.30;;;5.00;99.90;;;;;;5455659;26;19999;-87
2024/04/23 02:54:46;;;;;;;5.72;2.67;;;5.00;99.90;;;;;;5455440;26;20003;-86
2024/04/23 02:57:11;;;;;;;2.83;2.50;;;5.00;99.90;;;;;;5454476;26;20100;-87
2024/04/23 02:59:38;;;;;;;2.85;2.55;;;5.00;99.90;;;;;;5455361;26;20035;-87
2024/04/23 03:02:05;;;;;;;3.67;2.53;;;5.00;99.90;;;;;;5455320;26;20010;-86
2024/04/23 03:04:31;;;;;;;2.88;2.42;;;5.10;99.90;;;;;;5454697;26;20003;-86
2024/04/23 03:06:57;;;;;;;4.93;3.20;;;5.10;99.90;;;;;;5455456;26;20076;-87
2024/04/23 03:09:22;;;;;;;5.90;3.50;;;5.10;99.90;;;;;;5455029;26;20007;-87
2024/04/23 03:11:51;;;;;;;7.55;3.13;;;5.10;99.90;;;;;;5455402;26;20002;-87
2024/04/23 03:14:17;;;;;;;2.95;2.70;;;5.20;99.90;;;;;;5455346;26;20014;-87
2024/04/23 03:16:42;;;;;;;5.55;3.15;;;5.20;99.90;;;;;;5455234;26;20006;-86
2024/04/23 03:19:08;;;;;;;3.85;2.85;;;5.20;99.90;;;;;;5455113;26;19999;-87
2024/04/23 03:21:33;;;;;;;5.32;2.85;;;5.10;99.90;;;;;;5455404;26;20013;-88
2024/04/23 03:23:59;;;;;;;4.38;3.03;;;5.10;99.90;;;;;;5455139;26;20039;-87
2024/04/23 03:26:24;;;;;;;3.10;2.80;;;5.10;99.90;;;;;;5455517;26;20017;-86
2024/04/23 03:28:50;;;;;;;4.70;3.15;;;5.10;99.90;;;;;;5458084;26;20010;-86
2024/04/23 03:31:16;;;;;;;5.28;3.03;;;5.10;99.90;;;;;;5466120;26;19999;-87
2024/04/23 03:33:41;;;;;;;3.78;2.75;;;5.00;99.90;;;;;;5454907;26;20513;-87
2024/04/23 03:36:07;;;;;;;7.32;3.42;;;4.90;99.90;;;;;;5455061;26;20338;-87
2024/04/23 03:38:33;;;;;;;7.72;3.05;;;4.90;99.90;;;;;;5455016;26;19998;-87
2024/04/23 03:40:58;;;;;;;5.40;3.70;;;4.80;99.90;;;;;;5454688;26;20341;-87
2024/04/23 03:43:24;;;;;;;4.07;2.90;;;4.90;99.90;;;;;;5454940;26;19998;-86
2024/04/23 03:45:50;;;;;;;7.55;3.67;;;4.90;99.90;;;;;;5454019;26;20003;-87
2024/04/23 03:48:15;;;;;;;4.47;3.17;;;4.80;99.90;;;;;;5473296;26;19995;-87
2024/04/23 03:50:41;;;;;;;5.15;3.17;;;4.80;99.90;;;;;;5478471;26;20062;-85
2024/04/23 03:53:07;;;;;;;5.10;2.75;;;4.70;99.90;;;;;;5457184;26;20010;-86
2024/04/23 03:55:32;;;;;;;4.05;3.10;;;4.70;99.90;;;;;;5454406;26;20363;-86
2024/04/23 03:57:59;;;;;;;7.95;4.00;;;4.80;99.90;;;;;;5454373;26;20515;-87
2024/04/23 04:00:25;;;;;;;7.18;3.15;;;4.80;99.90;;;;;;5453624;26;20022;-86
2024/04/23 04:08:19;;;;;;;5.82;3.08;;;4.70;99.90;;;;;;5454758;26;20010;-87
2024/04/23 04:10:45;;;;;;;4.95;3.08;;;4.70;99.90;;;;;;5453844;26;20333;-87
2024/04/23 04:13:10;;;;;;;4.97;2.80;;;4.80;99.90;;;;;;5454110;26;19999;-87
2024/04/23 04:15:36;;;;;;;5.63;3.38;;;4.70;99.90;;;;;;5454182;26;20516;-87
2024/04/23 04:18:01;;;;;;;4.55;3.13;;;4.70;99.90;;;;;;5454006;26;20438;-87
2024/04/23 04:20:27;;;;;;;2.95;2.65;;;4.80;99.90;;;;;;5453189;26;20494;-88
2024/04/23 04:22:52;;;;;;;5.55;3.30;;;4.80;99.90;;;;;;5454410;26;20017;-87
2024/04/23 04:25:18;;;;;;;3.30;3.00;;;4.90;99.90;;;;;;5455792;26;20085;-87
2024/04/23 04:27:43;;;;;;;4.65;3.65;;;4.80;99.90;;;;;;5453968;26;20025;-87
2024/04/23 04:30:09;;;;;;;9.63;4.78;;;4.80;99.90;;;;;;5454681;26;19999;-86
2024/04/23 04:32:35;;;;;;;4.68;3.22;;;4.90;99.90;;;;;;5454117;26;20003;-87
2024/04/23 04:35:01;;;;;;;4.00;3.53;;;4.90;99.90;;;;;;5453396;26;20005;-86
2024/04/23 04:37:33;;;;;;;5.22;3.60;;;4.90;99.90;;;;;;5453875;26;20011;-86
2024/04/23 04:39:58;;;;;;;5.57;4.13;;;4.90;99.90;;;;;;5456780;26;19998;-87
2024/04/23 04:42:24;;;;;;;5.07;3.22;;;4.80;99.90;;;;;;5456790;26;20002;-87
2024/04/23 04:44:50;;;;;;;16.75;5.20;;;4.70;99.90;;;;;;5457970;26;19999;-87
2024/04/23 04:47:15;;;;;;;5.07;3.70;;;4.60;99.90;;;;;;5463583;26;20017;-87
2024/04/23 04:49:41;;;;;;;4.32;3.42;;;4.60;99.90;;;;;;5459739;26;20075;-87
2024/04/23 04:52:06;;;;;;;4.30;3.60;;;4.60;99.90;;;;;;5454159;26;20009;-88
2024/04/23 04:54:32;;;;;;;6.38;3.53;;;5.40;99.90;;;;;;5454117;26;20110;-87
2024/04/23 04:56:57;;;;;;;5.75;3.90;;;4.70;99.90;;;;;;5453920;26;20009;-86
2024/04/23 04:59:23;;;;;;;3.80;3.40;;;4.60;99.90;;;;;;5454018;26;19999;-88
2024/04/23 05:01:48;;;;;;;4.15;3.63;;;4.60;99.90;;;;;;5452450;26;19999;-88
2024/04/23 05:04:14;;;;;;;5.13;4.00;;;4.60;99.90;;;;;;5452926;26;19995;-87
2024/04/23 05:06:42;;;;;;;3.95;3.50;;;4.60;99.90;;;;;;5453560;26;20010;-88
2024/04/23 05:09:08;;;;;;;4.25;3.85;;;4.60;99.90;;;;;;5453430;26;20503;-87
2024/04/23 05:11:34;;;;;;;6.43;3.92;;;4.60;99.90;;;;;;5454199;26;19998;-87
2024/04/23 05:13:59;;;;;;;4.63;3.55;;;4.60;99.90;;;;;;5455499;26;19999;-88
2024/04/23 05:16:25;;;;;;;4.32;3.92;;;4.60;99.90;;;;;;5458111;26;19999;-89
2024/04/23 05:18:50;;;;;;;8.50;4.00;;;4.60;99.90;;;;;;5458192;26;19999;-89
2024/04/23 05:21:16;;;;;;;6.40;4.15;;;4.60;99.90;;;;;;5458532;26;20003;-89
2024/04/23 05:23:42;;;;;;;7.70;4.93;;;4.60;99.90;;;;;;5455609;26;20310;-88
2024/04/23 05:26:07;;;;;;;8.52;4.95;;;4.60;99.90;;;;;;5454631;26;20014;-88
2024/04/23 05:28:33;;;;;;;6.43;4.10;;;4.70;99.90;;;;;;5466793;26;20002;-86
2024/04/23 05:33:43;;;;;;;5.18;4.35;;;4.60;99.90;;;;;;5459200;26;20002;-90
2024/04/23 05:36:09;;;;;;;6.38;4.22;;;4.60;99.90;;;;;;5453913;26;20003;-88
2024/04/23 05:38:34;;;;;;;4.95;3.80;;;4.60;99.90;;;;;;5453275;26;20391;-88
2024/04/23 05:41:00;;;;;;;7.57;4.63;;;4.70;99.90;;;;;;5453018;26;20457;-89
2024/04/23 05:43:25;;;;;;;7.95;5.47;;;4.70;99.90;;;;;;5453646;26;20379;-88
2024/04/23 05:45:51;;;;;;;4.70;4.28;;;4.70;99.90;;;;;;5453354;26;20009;-89
2024/04/23 05:48:54;;;;;;;7.47;4.70;;;4.80;99.90;;;;;;5453372;26;19999;-89
2024/04/23 05:51:57;;;;;;;5.13;4.63;;;4.80;99.90;;;;;;5453863;26;20006;-89
2024/04/23 05:55:00;;;;;;;7.95;4.88;;;4.80;99.90;;;;;;5453415;26;20013;-89
2024/04/23 05:57:26;;;;;;;5.22;4.47;;;4.90;99.90;;;;;;5453523;26;19995;-89
2024/04/23 05:59:51;;;;;;;9.20;4.93;;;4.90;99.90;;;;;;5453530;26;20433;-89
2024/04/23 06:02:17;;;;;;;5.82;5.22;;;5.00;99.90;;;;;;5453947;26;19999;-90
2024/04/23 06:04:43;;;;;;;9.35;4.53;;;5.00;99.90;;;;;;5456542;26;20464;-88
2024/04/23 06:07:08;;;;;;;6.78;4.88;;;5.00;99.90;;;;;;5465825;26;20002;-89
2024/04/23 06:09:34;;;;;;;7.18;5.30;;;5.00;99.90;;;;;;5454403;26;20075;-90
2024/04/23 06:11:59;;;;;;;6.88;5.15;;;5.00;99.90;;;;;;5454236;26;19999;-88
2024/04/23 06:14:25;;;;;;;6.85;4.93;;;5.00;99.90;;;;;;5456837;26;20026;-90
2024/04/23 06:17:22;;;;;;;7.75;5.65;;;5.00;99.90;;;;;;5456752;26;20010;-90
2024/04/23 06:19:51;;;;;;;5.93;5.32;;;5.10;99.90;;;;;;5459508;26;19998;-89
2024/04/23 06:22:25;;;;;;;8.38;5.28;;;5.20;99.90;;;;;;5459898;26;19999;-90
2024/04/23 06:24:52;;;;;;;6.53;5.03;;;5.30;99.90;;;;;;5459555;26;19999;-90
2024/04/23 06:27:25;;;;;;;10.70;5.53;;;5.30;99.90;;;;;;5457931;26;20327;-91
2024/04/23 06:29:55;;;;;;;6.03;5.03;;;5.40;99.90;;;;;;5458849;26;19995;-90
2024/04/23 06:32:21;;;;;;;6.05;5.10;;;5.40;99.90;;;;;;5458207;26;19999;-92
2024/04/23 06:34:49;;;;;;;5.60;4.80;;;5.40;99.90;;;;;;5457850;26;20005;-89
2024/04/23 06:37:15;;;;;;;6.97;5.30;;;5.50;99.90;;;;;;5458310;26;20006;-91
2024/04/23 06:39:42;;;;;;;11.38;5.07;;;5.60;99.90;;;;;;5458995;26;19998;-90
2024/04/23 06:42:10;;;;;;;6.57;5.68;;;5.60;99.90;;;;;;5426487;26;19995;-90
2024/04/23 06:44:36;;;;;;;8.88;5.57;;;5.70;99.90;;;;;;5461075;26;19999;-90
2024/04/23 06:47:01;;;;;;;8.40;5.85;;;5.80;99.90;;;;;;5466202;26;20343;-90
2024/04/23 06:49:27;;;;;;;6.85;6.05;;;5.80;99.90;;;;;;5465595;26;20014;-90
2024/04/23 06:51:54;;;;;;;8.13;6.53;;;5.90;99.90;;;;;;5461129;26;20005;-91
2024/04/23 06:54:20;;;;;;;7.57;6.28;;;6.00;99.90;;;;;;5458037;26;19999;-91
2024/04/23 06:56:48;;;;;;;8.95;5.90;;;6.00;99.90;;;;;;5458105;26;20010;-90
2024/04/23 06:59:13;;;;;;;7.32;6.25;;;6.20;99.90;;;;;;5457859;26;20014;-91
2024/04/23 07:01:39;;;;;;;7.40;6.38;;;6.20;99.90;;;;;;5457911;26;19998;-90
2024/04/23 07:04:05;;;;;;;6.25;5.65;;;6.30;99.90;;;;;;5458015;26;20009;-90
2024/04/23 07:06:43;;;;;;;9.27;6.32;;;6.30;99.90;;;;;;5457875;26;19999;-91
2024/04/23 07:09:10;;;;;;;9.00;5.68;;;6.30;99.90;;;;;;5475781;26;20004;-90
2024/04/23 07:11:36;;;;;;;10.57;6.60;;;6.40;99.90;;;;;;5473744;26;20442;-89
2024/04/23 07:14:03;;;;;;;6.78;6.00;;;6.40;99.90;;;;;;5458604;26;20002;-91
2024/04/23 07:16:29;;;;;;;7.50;6.70;;;6.40;99.90;;;;;;5457206;26;19999;-91
2024/04/23 07:18:55;;;;;;;7.15;6.45;;;6.50;99.90;;;;;;5457362;26;19991;-90
2024/04/23 07:21:21;;;;;;;8.98;6.15;;;6.60;99.90;;;;;;5457186;26;20003;-90
2024/04/23 07:23:47;;;;;;;9.02;5.82;;;6.60;99.90;;;;;;5469998;26;20045;-90
2024/04/23 07:26:13;;;;;;;6.53;5.10;;;6.70;99.90;;;;;;5459416;26;20007;-90
2024/04/23 07:28:39;;;;;;;9.18;6.78;;;6.80;99.90;;;;;;5456601;26;19996;-90
2024/04/23 07:31:04;;;;;;;7.93;6.35;;;6.80;99.90;;;;;;5456083;26;20056;-91
2024/04/23 07:33:33;;;;;;;6.97;6.25;;;6.90;99.90;;;;;;5456581;26;20052;-90
2024/04/23 07:35:59;;;;;;;8.57;6.03;;;7.00;99.90;;;;;;5456427;26;19998;-90
2024/04/23 07:38:24;;;;;;;7.53;5.72;;;6.90;99.90;;;;;;5455852;26;19999;-90
2024/04/23 07:40:50;;;;;;;8.68;5.65;;;7.00;99.90;;;;;;5455782;26;19995;-90
2024/04/23 07:43:16;;;;;;;6.28;4.55;;;7.00;99.90;;;;;;5456328;26;20014;-90
2024/04/23 07:45:41;;;;;;;9.05;5.07;;;7.00;99.90;;;;;;5455666;26;20025;-90
2024/04/23 07:48:07;;;;;;;9.65;5.70;;;7.10;99.90;;;;;;5456174;26;19998;-90
2024/04/23 07:50:32;;;;;;;5.63;4.30;;;7.20;99.90;;;;;;5455816;26;19995;-90
2024/04/23 07:53:06;;;;;;;7.45;5.57;;;7.20;99.90;;;;;;5455283;26;20326;-91
2024/04/23 07:55:32;;;;;;;8.43;5.50;;;7.40;99.90;;;;;;5447752;26;19999;-89
2024/04/23 07:57:58;;;;;;;5.53;4.68;;;7.30;99.90;;;;;;5455417;26;20023;-89
2024/04/23 08:00:26;;;;;;;6.88;4.40;;;7.30;99.90;;;;;;5456375;26;20068;-90
2024/04/23 08:02:56;;;;;;;6.35;4.78;;;7.30;99.90;;;;;;5456214;26;20013;-91
2024/04/23 08:05:22;;;;;;;6.00;4.20;;;7.40;99.90;;;;;;5457469;26;20533;-89
2024/04/23 08:07:48;;;;;;;5.93;5.15;;;7.40;99.90;;;;;;5457817;26;20311;-89
2024/04/23 08:10:20;;;;;;;7.10;5.03;;;7.40;99.90;;;;;;5460523;26;20009;-90
2024/04/23 08:12:46;;;;;;;4.63;4.15;;;7.40;99.90;;;;;;5464995;26;19998;-90
2024/04/23 08:15:12;;;;;;;7.90;5.38;;;7.60;99.90;;;;;;5464297;26;20002;-90
2024/04/23 08:17:38;;;;;;;4.82;3.70;;;7.40;99.90;;;;;;5465217;26;19995;-89
2024/04/23 08:20:05;;;;;;;4.43;4.03;;;7.50;99.90;;;;;;5456821;26;19999;-90
2024/04/23 08:22:31;;;;;;;4.93;4.15;;;7.60;99.90;;;;;;5456171;26;19994;-89
2024/04/23 08:24:56;;;;;;;4.63;3.92;;;7.60;99.90;;;;;;5456374;26;20013;-90
2024/04/23 08:27:22;;;;;;;5.68;4.13;;;7.60;99.90;;;;;;5455989;26;20357;-90
2024/04/23 08:29:47;;;;;;;4.82;4.32;;;7.60;99.90;;;;;;5456133;26;20329;-89
2024/04/23 08:32:16;;;;;;;5.10;4.22;;;7.70;99.90;;;;;;5456195;26;19990;-90
2024/04/23 08:34:42;;;;;;;5.78;4.63;;;7.70;99.90;;;;;;5454899;26;20472;-90
2024/04/23 08:37:08;;;;;;;5.20;3.85;;;7.70;99.90;;;;;;5455734;26;20003;-89
2024/04/23 08:39:33;;;;;;;6.22;4.63;;;7.70;99.90;;;;;;5456754;26;20431;-89
2024/04/23 08:42:01;;;;;;;4.53;4.13;;;7.70;99.90;;;;;;5468326;26;19998;-89
2024/04/23 08:44:29;;;;;;;5.20;4.30;;;7.80;99.90;;;;;;5456357;26;19994;-90
2024/04/23 08:46:55;;;;;;;5.10;3.63;;;7.90;99.90;;;;;;5471734;26;19991;-89
2024/04/23 08:49:22;;;;;;;7.95;4.43;;;8.00;99.90;;;;;;5477519;26;20001;-89
2024/04/23 08:51:47;;;;;;;5.07;3.55;;;8.00;99.90;;;;;;5457559;26;19999;-91
2024/04/23 08:54:13;;;;;;;8.05;4.10;;;8.00;99.90;;;;;;5454236;26;19999;-89
2024/04/23 08:56:44;;;;;;;8.88;3.60;;;8.00;99.90;;;;;;5454701;26;19995;-90
2024/04/23 08:59:12;;;;;;;;;;;8.60;99.90;;;;;;5454653;26;20334;-89
2024/04/23 09:01:41;;;;;;;3.90;3.47;;;7.90;99.90;;;;;;5453476;26;19924;-89
2024/04/23 09:04:07;;;;;;;3.20;2.90;;;7.90;99.90;;;;;;5454633;26;20477;-89
2024/04/23 09:06:34;;;;;;;6.40;3.30;;;7.90;99.90;;;;;;5454117;26;20013;-89
2024/04/23 09:08:59;;;;;;;3.58;2.30;;;8.10;99.90;;;;;;5453912;26;20006;-89
2024/04/23 09:11:31;;;;;;;3.20;2.90;;;8.00;99.90;;;;;;5454415;26;20014;-89
2024/04/23 09:13:58;;;;;;;3.95;2.70;;;8.10;99.90;;;;;;5454387;26;19994;-88
2024/04/23 09:16:24;;;;;;;2.92;2.65;;;8.20;99.90;;;;;;5453512;26;20562;-88
2024/04/23 09:18:50;;;;;;;4.80;3.30;;;8.30;99.90;;;;;;5455987;26;20044;-87
2024/04/23 09:21:15;;;;;;;3.20;2.90;;;8.20;99.90;;;;;;5454209;26;19999;-87
2024/04/23 09:23:45;;;;;;;5.00;2.78;;;8.20;99.90;;;;;;5453448;26;19995;-88
2024/04/23 09:26:11;;;;;;;3.75;2.92;;;8.20;99.90;;;;;;5453912;26;19999;-87
2024/04/23 09:28:41;;;;;;;8.50;4.00;;;8.10;99.90;;;;;;5453799;26;20462;-88
2024/04/23 09:31:07;;;;;;;5.53;3.28;;;8.10;99.90;;;;;;5453342;26;20330;-88
2024/04/23 09:33:34;;;;;;;5.00;3.53;;;8.10;99.90;;;;;;5454149;26;20013;-89
2024/04/23 09:36:10;;;;;;;4.32;3.78;;;8.00;99.90;;;;;;5453756;26;20017;-87
2024/04/23 09:38:37;;;;;;;5.85;3.22;;;8.10;99.90;;;;;;5454096;26;19999;-89
2024/04/23 09:41:07;;;;;;;3.58;3.28;;;8.10;99.90;;;;;;5454010;26;20006;-89
2024/04/23 09:43:34;;;;;;;3.72;3.13;;;8.10;99.90;;;;;;5453637;26;19995;-88
2024/04/23 09:46:02;;;;;;;3.67;3.03;;;8.10;99.90;;;;;;5454857;26;20407;-88
2024/04/23 09:48:32;;;;;;;3.03;2.67;;;8.10;99.90;;;;;;5457224;26;19998;-89
2024/04/23 09:51:09;;;;;;;3.38;2.70;;;8.20;99.90;;;;;;5457136;26;19994;-89
2024/04/23 09:53:36;;;;;;;3.75;2.28;;;8.20;99.70;;;;;;5457899;26;19994;-88
2024/04/23 09:56:06;;;;;;;2.83;2.42;;;8.20;98.90;;;;;;5457593;26;20002;-89
2024/04/23 09:58:33;;;;;;;5.43;2.38;;;8.10;99.10;;;;;;5468148;26;19999;-88
2024/04/23 10:01:00;;;;;;;3.70;2.60;;;8.10;98.90;;;;;;5458634;26;20007;-89
2024/04/23 10:03:27;;;;;;;4.88;2.30;;;8.00;98.80;;;;;;5457491;26;20103;-89
2024/04/23 10:05:59;;;;;;;3.50;2.45;;;8.00;98.60;;;;;;5456681;26;20486;-88
2024/04/23 10:08:31;;;;;;;2.80;2.25;;;8.00;98.30;;;;;;5458630;26;20070;-88
2024/04/23 10:10:57;;;;;;;2.58;2.33;;;8.00;98.10;;;;;;5458285;26;20018;-88
2024/04/23 10:13:35;;;;;;;4.50;2.58;;;7.90;97.40;;;;;;5457242;26;20002;-89
2024/04/23 10:16:30;;;;;;;3.10;2.55;;;8.00;97.20;;;;;;5449503;26;20474;-88
2024/04/23 10:18:59;;;;;;;2.08;1.90;;;8.00;97.40;;;;;;5456638;26;20011;-88
2024/04/23 10:21:28;;;;;;;2.45;2.20;;;8.00;98.10;;;;;;5457256;26;19999;-88
2024/04/23 10:23:57;;;;;;;2.92;2.63;;;8.20;98.40;;;;;;5464423;26;19991;-89
2024/04/23 10:26:24;;;;;;;3.78;2.65;;;8.20;99.10;;;;;;5479286;26;19994;-88
2024/04/23 10:28:52;;;;;;;3.67;2.40;;;8.30;99.00;;;;;;5469366;26;20013;-88
2024/04/23 10:31:18;;;;;;;3.03;2.72;;;8.30;97.60;;;;;;5456677;26;20434;-88
2024/04/23 10:33:48;;;;;;;3.13;2.70;;;8.40;97.50;;;;;;5458331;26;20003;-88
2024/04/23 10:36:14;;;;;;;3.30;3.00;;;8.40;98.10;;;;;;5457024;26;19995;-89
2024/04/23 10:38:44;;;;;;;5.78;2.47;;;8.70;98.30;;;;;;5457010;26;20007;-89
2024/04/23 10:41:12;;;;;;;3.03;2.83;;;8.50;98.40;;;;;;5456319;26;20032;-88
2024/04/23 10:43:39;;;;;;;7.03;2.60;;;8.50;98.50;;;;;;5456187;26;20003;-87
2024/04/23 10:46:06;;;;;;;3.85;3.15;;;8.50;98.40;;;;;;5456051;26;20003;-89
2024/04/23 10:48:37;;;;;;;3.50;3.10;;;8.90;98.90;;;;;;5455248;26;20003;-88
2024/04/23 10:51:04;;;;;;;4.55;3.30;;;8.60;99.10;;;;;;5456248;26;19995;-91
2024/04/23 10:53:31;;;;;;;3.25;2.88;;;8.60;98.70;;;;;;5456834;26;20002;-89
2024/04/23 10:55:57;;;;;;;3.42;3.03;;;8.50;98.40;;;;;;5455574;26;20029;-88
2024/04/23 10:58:24;;;;;;;4.40;3.13;;;8.50;98.50;;;;;;5456131;26;20010;-88
2024/04/23 11:00:59;;;;;;;3.38;3.03;;;8.50;98.40;;;;;;5455405;26;20018;-88
2024/04/23 11:03:29;;;;;;;4.53;3.22;;;8.70;98.80;;;;;;5456459;26;20411;-88
2024/04/23 11:05:55;;;;;;;5.07;4.00;;;8.80;98.80;;;;;;5456715;26;20085;-88
2024/04/23 11:08:25;;;;;;;6.40;4.03;;;8.90;99.50;;;;;;5456423;26;20232;-89
2024/04/23 11:11:04;;;;;;;9.52;4.43;;;8.90;99.90;;;;;;5457505;26;20007;-89
2024/04/23 11:13:38;;;;;;;8.05;4.30;;;9.00;99.90;;;;;;5457766;26;19995;-87
2024/04/23 11:16:17;;;;;;;4.63;3.95;;;9.00;99.90;;;;;;5466816;26;19995;-88
2024/04/23 11:18:45;;;;;;;4.38;3.97;;;9.00;99.90;;;;;;5458743;26;20053;-89
2024/04/23 11:21:10;;;;;;;4.85;3.85;;;8.90;99.90;;;;;;5425252;26;20449;-87
2024/04/23 11:23:42;;;;;;;6.38;4.40;;;8.90;99.90;;;;;;5456301;26;19995;-88
2024/04/23 11:26:09;;;;;;;4.35;3.60;;;8.90;99.90;;;;;;5456608;26;20002;-88
2024/04/23 11:28:38;;;;;;;8.23;3.47;;;8.80;99.90;;;;;;5457074;26;19995;-89
2024/04/23 11:31:04;;;;;;;4.32;3.50;;;8.90;99.90;;;;;;5466412;26;20025;-87
2024/04/23 11:33:30;;;;;;;5.18;4.15;;;8.90;99.90;;;;;;5478117;26;20002;-87
2024/04/23 11:35:56;;;;;;;3.78;3.47;;;9.00;99.70;;;;;;5464055;26;20050;-89
2024/04/23 11:38:22;;;;;;;3.95;3.55;;;9.00;99.90;;;;;;5455859;26;20002;-87
2024/04/23 11:40:48;;;;;;;4.35;3.90;;;9.00;99.70;;;;;;5455618;26;19994;-86
2024/04/23 11:43:17;;;;;;;4.00;3.60;;;9.10;99.30;;;;;;5455035;26;20009;-87
2024/04/23 11:45:47;;;;;;;4.57;3.87;;;9.10;99.40;;;;;;5457068;26;20002;-87
2024/04/23 11:48:14;;;;;;;5.50;3.97;;;9.10;99.40;;;;;;5458156;26;20117;-87
2024/04/23 11:50:40;;;;;;;4.70;4.28;;;9.20;99.50;;;;;;5455261;26;19999;-87
2024/04/23 11:53:06;;;;;;;6.35;4.05;;;9.20;99.50;;;;;;5456742;26;19995;-87
2024/04/23 11:55:32;;;;;;;5.25;4.18;;;10.00;99.20;;;;;;5455910;26;20003;-87
2024/04/23 11:57:58;;;;;;;6.93;4.15;;;9.40;99.10;;;;;;5458112;26;20383;-89
2024/04/23 12:00:27;;;;;;;5.60;4.00;;;9.40;98.90;;;;;;5461583;26;20010;-87
2024/04/23 12:02:53;;;;;;;4.82;3.83;;;9.50;99.00;;;;;;5463552;26;19999;-88
2024/04/23 12:05:20;;;;;;;4.40;4.00;;;9.50;98.60;;;;;;5461237;26;20484;-87
2024/04/23 12:07:47;;;;;;;5.25;4.75;;;9.50;98.40;;;;;;5462662;26;19995;-87
2024/04/23 12:10:33;;;;;;;6.57;3.47;;;9.60;98.30;;;;;;5454200;26;20021;-88
2024/04/23 12:13:00;;;;;;;4.43;4.00;;;9.70;98.20;;;;;;5454714;26;19999;-87
2024/04/23 12:15:26;;;;;;;4.55;3.90;;;9.80;98.10;;;;;;5455324;26;20006;-88
2024/04/23 12:17:52;;;;;;;5.35;3.28;;;9.90;97.90;;;;;;5455091;26;20071;-88
2024/04/23 12:20:17;;;;;;;4.85;3.40;;;9.90;98.00;;;;;;5454465;26;20392;-88
2024/04/23 12:22:44;;;;;;;6.63;3.80;;;9.90;98.30;;;;;;5455173;26;19995;-88
2024/04/23 12:25:14;;;;;;;5.00;3.70;;;9.90;97.90;;;;;;5454669;26;20010;-87
2024/04/23 12:27:44;;;;;;;4.00;3.60;;;9.80;97.60;;;;;;5454638;26;20350;-87
2024/04/23 12:30:12;;;;;;;3.63;3.33;;;9.80;97.70;;;;;;5454597;26;19999;-87
2024/04/23 12:32:40;;;;;;;4.55;2.83;;;9.90;96.90;;;;;;5454170;26;20079;-88
2024/04/23 12:35:07;;;;;;;6.03;3.05;;;10.00;96.90;;;;;;5455012;26;20010;-87
2024/04/23 12:37:33;;;;;;;6.75;3.17;;;10.10;97.30;;;;;;5454210;26;20085;-88
2024/04/23 12:40:03;;;;;;;3.88;3.03;;;10.20;96.10;;;;;;5454479;26;20007;-88
2024/04/23 12:42:29;;;;;;;3.20;2.83;;;10.20;96.10;;;;;;5454807;26;19998;-87
2024/04/23 12:44:55;;;;;;;3.20;2.47;;;10.20;96.00;;;;;;5454295;26;20334;-88
2024/04/23 12:47:21;;;;;;;5.80;3.25;;;10.20;96.10;;;;;;5454209;26;20071;-87
2024/04/23 12:49:46;;;;;;;3.17;2.88;;;10.20;96.10;;;;;;5454539;26;20472;-86
2024/04/23 12:52:12;;;;;;;3.72;2.95;;;10.20;96.10;;;;;;5454983;26;20006;-87
2024/04/23 12:54:37;;;;;;;3.80;3.50;;;10.30;96.40;;;;;;5454032;26;20007;-87
2024/04/23 12:57:06;;;;;;;4.18;2.92;;;10.30;96.40;;;;;;5454937;26;19999;-87
2024/04/23 12:59:36;;;;;;;3.60;3.20;;;10.30;96.60;;;;;;5454206;26;19999;-87
2024/04/23 13:02:02;;;;;;;8.23;3.17;;;10.40;96.30;;;;;;5454236;26;20068;-87
2024/04/23 13:04:27;;;;;;;3.90;2.58;;;10.40;96.00;;;;;;5454458;26;20416;-88
2024/04/23 13:06:53;;;;;;;5.95;3.47;;;10.50;95.80;;;;;;5454391;26;20353;-87